Time;durP1;ratioP1;P1;durP2;ratioP2;P2;SDS_P1;SDS_P2;PMS_P1;PMS_P2;Temp;Humidity;BMP_temperature;BMP_pressure;BME280_temperature;BME280_humidity;BME280_pressure;Samples;Min_cycle;Max_cycle;Signal;HPM_P1;HPM_P2
2021/03/19 00:01:39;;;;;;;184.63;58.38;;;;;;;-0.04;81.02;100720.55;1632873;86;21176;-69
2021/03/19 00:04:07;;;;;;;163.40;59.25;;;;;;;0.00;81.08;100724.67;1652185;86;21201;-69
2021/03/19 00:06:33;;;;;;;155.43;50.50;;;;;;;-0.01;81.10;100726.45;1665446;86;21180;-69
2021/03/19 00:09:00;;;;;;;133.10;42.55;;;;;;;-0.03;81.11;100721.75;1664617;86;21277;-69
2021/03/19 00:11:27;;;;;;;109.67;43.80;;;;;;;-0.08;81.17;100716.44;1664435;86;21259;-69
2021/03/19 00:13:53;;;;;;;107.10;43.55;;;;;;;-0.14;81.24;100730.73;1664609;85;21901;-69
2021/03/19 00:16:20;;;;;;;106.87;44.60;;;;;;;-0.17;81.24;100731.40;1664874;84;21308;-69
2021/03/19 00:18:46;;;;;;;125.30;45.55;;;;;;;-0.16;81.26;100730.47;1628664;85;21275;-69
2021/03/19 00:21:12;;;;;;;131.12;51.60;;;;;;;-0.11;81.27;100737.59;1626130;88;21243;-69
2021/03/19 00:23:38;;;;;;;136.47;48.45;;;;;;;-0.09;81.30;100731.78;1626229;88;21211;-69
2021/03/19 00:26:05;;;;;;;134.32;50.00;;;;;;;-0.11;81.30;100738.91;1625939;88;21182;-69
2021/03/19 00:28:31;;;;;;;148.30;52.30;;;;;;;-0.13;81.34;100735.05;1628451;87;21211;-69
2021/03/19 00:30:57;;;;;;;150.03;50.43;;;;;;;-0.14;81.34;100735.17;1631776;87;21139;-69
2021/03/19 00:33:23;;;;;;;125.07;48.20;;;;;;;-0.16;81.39;100735.71;1637029;87;21329;-69
2021/03/19 00:35:50;;;;;;;108.47;43.65;;;;;;;-0.18;81.45;100745.46;1637182;87;21565;-70
2021/03/19 00:38:17;;;;;;;98.85;45.20;;;;;;;-0.20;81.45;100743.38;1628177;87;21246;-70
2021/03/19 00:40:43;;;;;;;115.10;56.77;;;;;;;-0.27;81.43;100748.62;1626850;87;21220;-69
2021/03/19 00:43:11;;;;;;;108.32;49.88;;;;;;;-0.32;81.43;100748.07;1633728;87;21204;-69
2021/03/19 00:45:37;;;;;;;121.95;46.88;;;;;;;-0.30;81.44;100743.56;1621834;87;21308;-69
2021/03/19 00:48:04;;;;;;;115.37;49.18;;;;;;;-0.29;81.48;100738.71;1637133;87;21172;-69
2021/03/19 00:50:36;;;;;;;115.62;46.55;;;;;;;-0.27;81.55;100744.23;1655374;85;21191;-70
2021/03/19 00:53:03;;;;;;;118.20;48.10;;;;;;;-0.27;81.57;100742.06;1641928;87;21188;-70
2021/03/19 00:55:30;;;;;;;118.75;48.45;;;;;;;-0.35;81.59;100732.05;1653326;85;21183;-70
2021/03/19 00:57:56;;;;;;;106.95;46.00;;;;;;;-0.33;81.62;100731.97;1670379;85;22088;-70
2021/03/19 01:00:24;;;;;;;105.22;44.40;;;;;;;-0.29;81.66;100732.16;1660942;85;21189;-69
2021/03/19 01:02:50;;;;;;;109.27;50.30;;;;;;;-0.29;81.68;100740.02;1640436;87;21669;-69
2021/03/19 01:05:21;;;;;;;93.97;42.33;;;;;;;-0.31;81.70;100743.18;1648538;85;21215;-69
2021/03/19 01:07:47;;;;;;;103.42;47.75;;;;;;;-0.32;81.73;100739.75;1670080;85;21629;-69
2021/03/19 01:10:29;;;;;;;117.25;48.30;;;;;;;-0.33;81.74;100739.83;1670483;85;22197;-69
2021/03/19 01:12:56;;;;;;;111.90;48.73;;;;;;;-0.37;81.77;100737.02;1667400;85;21629;-69
2021/03/19 01:15:22;;;;;;;119.62;48.25;;;;;;;-0.36;81.76;100740.02;1666215;86;21205;-69
2021/03/19 01:17:48;;;;;;;122.67;44.15;;;;;;;-0.37;81.81;100742.25;1652927;84;21188;-69
2021/03/19 01:20:15;;;;;;;94.92;39.67;;;;;;;-0.45;81.83;100737.47;1662097;85;21171;-69
2021/03/19 01:22:42;;;;;;;96.72;40.98;;;;;;;-0.55;81.84;100737.19;1625000;87;21647;-69
2021/03/19 01:25:12;;;;;;;79.70;36.55;;;;;;;-0.60;81.84;100739.22;1653041;86;21615;-69
2021/03/19 01:27:39;;;;;;;92.60;39.10;;;;;;;-0.66;81.86;100745.28;1646532;86;21612;-69
2021/03/19 01:30:08;;;;;;;94.03;39.05;;;;;;;-0.70;81.87;100740.70;1650352;86;21188;-69
2021/03/19 01:32:34;;;;;;;105.15;44.63;;;;;;;-0.74;81.87;100743.11;1665421;85;21204;-69
2021/03/19 01:35:00;;;;;;;106.80;46.25;;;;;;;-0.74;81.89;100736.57;1664788;86;21168;-69
2021/03/19 01:37:27;;;;;;;121.67;46.80;;;;;;;-0.76;81.95;100730.59;1664976;86;21228;-69
2021/03/19 01:39:54;;;;;;;136.88;47.13;;;;;;;-0.76;81.99;100733.21;1642156;85;21195;-69
2021/03/19 01:42:20;;;;;;;127.07;47.27;;;;;;;-0.76;82.00;100738.45;1624308;86;21271;-69
2021/03/19 01:45:35;;;;;;;120.67;49.67;;;;;;;-0.78;82.05;100735.09;1630665;86;21221;-69
2021/03/19 01:48:57;;;;;;;109.70;46.45;;;;;;;-0.82;82.08;100730.96;1587890;90;21785;-69
2021/03/19 01:52:19;;;;;;;106.97;44.48;;;;;;;-0.85;82.09;100732.45;1645514;87;21171;-69
2021/03/19 01:55:41;;;;;;;112.77;46.33;;;;;;;-0.87;82.11;100726.45;1587229;90;21172;-69
2021/03/19 01:59:03;;;;;;;114.30;43.95;;;;;;;-0.89;82.11;100724.40;1635413;86;21163;-69
2021/03/19 02:02:24;;;;;;;127.80;58.58;;;;;;;-0.89;82.16;100728.33;1640486;87;21205;-69
2021/03/19 02:05:46;;;;;;;109.80;48.68;;;;;;;-0.83;82.21;100722.72;1653645;86;21286;-69
2021/03/19 02:09:07;;;;;;;118.90;51.18;;;;;;;-0.72;82.20;100719.02;1622103;87;21646;-69
2021/03/19 02:12:29;;;;;;;114.55;46.95;;;;;;;-0.64;82.24;100722.03;1626241;86;21216;-69
2021/03/19 02:15:51;;;;;;;118.15;49.70;;;;;;;-0.59;82.26;100719.96;1621292;86;21634;-69
2021/03/19 02:19:13;;;;;;;115.67;47.30;;;;;;;-0.62;82.28;100722.77;1642232;86;21619;-69
2021/03/19 02:22:35;;;;;;;114.32;43.35;;;;;;;-0.62;82.32;100724.08;1652026;86;22084;-69
2021/03/19 02:25:57;;;;;;;101.02;44.45;;;;;;;-0.74;82.36;100727.41;1599524;89;21211;-70
2021/03/19 02:29:19;;;;;;;99.95;44.60;;;;;;;-0.77;82.39;100727.59;1639583;86;21199;-70
2021/03/19 02:31:55;;;;;;;122.13;47.62;;;;;;;-0.75;82.40;100732.29;1628480;86;21180;-69
2021/03/19 02:34:29;;;;;;;118.40;51.60;;;;;;;-0.72;82.38;100728.17;1625344;88;21163;-70
2021/03/19 02:36:56;;;;;;;145.80;61.73;;;;;;;-0.72;82.39;100729.48;1600073;88;22112;-69
2021/03/19 02:39:22;;;;;;;137.20;59.70;;;;;;;-0.68;82.40;100738.84;1625063;88;21188;-70
2021/03/19 02:41:48;;;;;;;169.32;70.25;;;;;;;-0.64;82.39;100737.73;1647322;86;21159;-70
2021/03/19 02:44:14;;;;;;;154.47;58.08;;;;;;;-0.68;82.40;100733.61;1651968;86;21202;-69
2021/03/19 02:46:41;;;;;;;131.50;52.78;;;;;;;-0.66;82.43;100738.28;1627592;86;21222;-69
2021/03/19 02:49:07;;;;;;;120.57;53.10;;;;;;;-0.63;82.43;100736.78;1625885;86;21250;-69
2021/03/19 02:51:33;;;;;;;119.45;49.80;;;;;;;-0.58;82.41;100737.37;1637446;86;21208;-69
2021/03/19 02:53:59;;;;;;;135.75;55.00;;;;;;;-0.54;82.40;100732.33;1625626;86;21196;-69
2021/03/19 02:56:26;;;;;;;139.75;59.88;;;;;;;-0.53;82.42;100738.41;1625052;88;21187;-69
2021/03/19 02:58:52;;;;;;;154.97;64.10;;;;;;;-0.57;82.44;100740.38;1650701;86;21101;-69
2021/03/19 03:01:18;;;;;;;179.35;76.57;;;;;;;-0.66;82.44;100744.83;1651815;86;21183;-69
2021/03/19 03:03:44;;;;;;;155.30;65.32;;;;;;;-0.75;82.45;100746.69;1652024;86;21180;-69
2021/03/19 03:06:10;;;;;;;138.10;59.03;;;;;;;-0.83;82.45;100750.20;1651917;86;21616;-69
2021/03/19 03:08:37;;;;;;;134.85;57.40;;;;;;;-0.90;82.46;100748.87;1629559;86;21203;-69
2021/03/19 03:11:03;;;;;;;140.80;56.77;;;;;;;-0.94;82.45;100744.75;1625308;86;21186;-69
2021/03/19 03:13:29;;;;;;;155.67;59.03;;;;;;;-0.97;82.45;100746.70;1628509;86;22694;-69
2021/03/19 03:15:56;;;;;;;143.70;60.48;;;;;;;-0.94;82.44;100747.83;1625053;88;21168;-69
2021/03/19 03:18:22;;;;;;;149.07;63.85;;;;;;;-0.86;82.44;100747.77;1626774;86;21160;-69
2021/03/19 03:20:53;;;;;;;158.05;68.97;;;;;;;-0.78;82.44;100744.72;1644160;86;21163;-69
2021/03/19 03:23:20;;;;;;;167.30;70.92;;;;;;;-0.72;82.46;100746.50;1654687;86;21143;-69
2021/03/19 03:25:47;;;;;;;143.13;61.83;;;;;;;-0.68;82.49;100751.94;1654892;86;22081;-70
2021/03/19 03:28:13;;;;;;;155.57;59.67;;;;;;;-0.70;82.53;100755.09;1652214;86;21166;-69
2021/03/19 03:30:43;;;;;;;162.25;64.03;;;;;;;-0.79;82.55;100756.95;1651524;86;21199;-69
2021/03/19 03:33:10;;;;;;;150.75;59.45;;;;;;;-0.88;82.55;100754.85;1652161;86;21171;-69
2021/03/19 03:35:36;;;;;;;157.82;58.78;;;;;;;-0.93;82.57;100752.98;1649501;86;21211;-69
2021/03/19 03:38:04;;;;;;;153.68;59.80;;;;;;;-0.96;82.56;100755.78;1625111;88;22094;-69
2021/03/19 03:40:35;;;;;;;153.78;62.93;;;;;;;-0.98;82.57;100757.62;1625317;86;21151;-69
2021/03/19 03:43:02;;;;;;;165.03;61.42;;;;;;;-0.97;82.58;100750.62;1624736;86;21167;-69
2021/03/19 03:45:28;;;;;;;180.87;66.40;;;;;;;-0.96;82.59;100751.86;1625456;86;21171;-69
2021/03/19 03:47:55;;;;;;;167.82;65.37;;;;;;;-0.93;82.62;100749.06;1629095;86;21203;-69
2021/03/19 03:50:23;;;;;;;148.38;66.67;;;;;;;-0.94;82.62;100751.75;1623884;88;21585;-69
2021/03/19 03:52:50;;;;;;;171.10;66.95;;;;;;;-0.97;82.65;100749.31;1623864;88;21179;-69
2021/03/19 03:55:17;;;;;;;154.90;61.37;;;;;;;-0.98;82.64;100749.78;1624009;88;21251;-69
2021/03/19 03:57:44;;;;;;;163.05;65.62;;;;;;;-1.02;82.67;100752.19;1648993;86;21538;-69
2021/03/19 04:00:12;;;;;;;154.75;63.10;;;;;;;-1.08;82.67;100753.86;1651919;86;21624;-69
2021/03/19 04:02:38;;;;;;;141.30;56.60;;;;;;;-1.10;82.70;100754.42;1651925;86;21288;-70
2021/03/19 04:05:07;;;;;;;126.95;53.42;;;;;;;-1.12;82.71;100756.27;1651664;86;21230;-69
2021/03/19 04:07:33;;;;;;;131.55;52.45;;;;;;;-1.13;82.72;100758.53;1629874;86;21151;-69
2021/03/19 04:09:59;;;;;;;131.67;52.27;;;;;;;-1.16;82.74;100756.09;1624917;88;21178;-69
2021/03/19 04:12:25;;;;;;;134.50;55.45;;;;;;;-1.20;82.73;100753.27;1625408;86;21200;-69
2021/03/19 04:14:51;;;;;;;138.18;56.13;;;;;;;-1.24;82.73;100755.67;1626123;86;21275;-69
2021/03/19 04:17:27;;;;;;;145.25;59.77;;;;;;;-1.24;82.76;100756.98;1652055;85;21254;-69
2021/03/19 04:19:54;;;;;;;147.85;57.38;;;;;;;-1.22;82.79;100752.48;1651652;86;21633;-70
2021/03/19 04:22:20;;;;;;;140.75;60.60;;;;;;;-1.18;82.83;100759.23;1649585;87;21176;-69
2021/03/19 04:24:48;;;;;;;141.05;60.98;;;;;;;-1.16;82.84;100755.59;1649655;87;21187;-69
2021/03/19 04:27:19;;;;;;;141.18;56.53;;;;;;;-1.09;82.86;100760.05;1632138;87;21211;-70
2021/03/19 04:29:45;;;;;;;128.45;52.20;;;;;;;-1.03;82.86;100763.15;1623264;87;21659;-69
2021/03/19 04:32:12;;;;;;;109.52;48.25;;;;;;;-0.99;82.86;100766.89;1622877;88;21636;-69
2021/03/19 04:34:38;;;;;;;108.05;47.65;;;;;;;-1.00;82.91;100771.28;1623014;88;21211;-69
2021/03/19 04:37:06;;;;;;;127.02;54.65;;;;;;;-1.05;82.88;100770.23;1638537;87;21160;-69
2021/03/19 04:39:32;;;;;;;121.13;51.50;;;;;;;-1.08;82.91;100773.48;1649534;87;21187;-69
2021/03/19 04:42:01;;;;;;;134.25;55.92;;;;;;;-1.09;82.94;100777.87;1641537;87;21846;-69
2021/03/19 04:44:30;;;;;;;138.18;53.05;;;;;;;-1.07;82.93;100783.03;1637211;87;21211;-69
2021/03/19 04:46:56;;;;;;;148.53;53.20;;;;;;;-1.09;82.97;100779.67;1618277;88;21297;-69
2021/03/19 04:49:23;;;;;;;124.05;51.33;;;;;;;-1.08;83.00;100778.72;1622860;88;21151;-69
2021/03/19 04:51:49;;;;;;;111.00;46.90;;;;;;;-1.06;82.99;100788.65;1622976;88;21304;-69
2021/03/19 04:54:15;;;;;;;101.10;44.05;;;;;;;-1.07;82.99;100785.64;1622846;88;21238;-71
2021/03/19 04:56:41;;;;;;;112.12;50.25;;;;;;;-1.06;83.00;100782.11;1627383;87;21172;-68
2021/03/19 04:59:08;;;;;;;121.40;51.13;;;;;;;-1.05;83.03;100786.39;1649445;87;21171;-68
2021/03/19 05:01:46;;;;;;;127.05;53.75;;;;;;;-1.03;83.05;100781.47;1649613;87;21164;-68
2021/03/19 05:04:13;;;;;;;132.22;54.45;;;;;;;-0.99;83.07;100788.68;1649613;87;21541;-68
2021/03/19 05:06:39;;;;;;;142.93;57.10;;;;;;;-0.98;83.12;100790.34;1645400;87;21211;-68
2021/03/19 05:09:05;;;;;;;135.43;52.53;;;;;;;-0.96;83.14;100788.50;1623021;88;21200;-67
2021/03/19 05:11:31;;;;;;;174.53;76.50;;;;;;;-0.94;83.16;100791.86;1624288;87;21627;-70
2021/03/19 05:13:57;;;;;;;174.12;71.30;;;;;;;-0.94;83.13;100794.48;1649160;87;21191;-70
2021/03/19 05:16:24;;;;;;;105.43;45.75;;;;;;;-0.95;83.17;100798.02;1648795;85;21226;-71
2021/03/19 05:18:50;;;;;;;262.08;93.55;;;;;;;-0.97;83.17;100800.35;1622827;88;21215;-71
2021/03/19 05:21:16;;;;;;;178.75;70.50;;;;;;;-1.01;83.18;100802.30;1625143;88;21230;-68
2021/03/19 05:23:42;;;;;;;125.33;52.78;;;;;;;-1.05;83.21;100802.94;1627316;88;21163;-68
2021/03/19 05:26:09;;;;;;;130.12;56.55;;;;;;;-1.06;83.23;100802.58;1631907;86;21175;-68
2021/03/19 05:28:35;;;;;;;136.28;53.87;;;;;;;-1.10;83.24;100802.83;1652836;86;21186;-68
2021/03/19 05:31:01;;;;;;;131.40;51.00;;;;;;;-1.16;83.28;100816.27;1631987;86;21667;-68
2021/03/19 05:33:31;;;;;;;134.30;50.17;;;;;;;-1.20;83.31;100812.12;1627312;88;21631;-68
2021/03/19 05:35:57;;;;;;;109.63;44.27;;;;;;;-1.21;83.34;100813.05;1627606;88;21235;-68
2021/03/19 05:38:23;;;;;;;126.40;47.88;;;;;;;-1.25;83.33;100806.30;1649761;86;21199;-68
2021/03/19 05:40:52;;;;;;;119.57;47.45;;;;;;;-1.21;83.33;100805.20;1639610;86;21286;-68
2021/03/19 05:43:29;;;;;;;114.03;46.10;;;;;;;-1.18;83.34;100810.26;1605091;88;21706;-68
2021/03/19 05:46:09;;;;;;;104.32;47.95;;;;;;;-1.15;83.36;100815.31;1628915;86;21183;-68
2021/03/19 05:48:51;;;;;;;;;;;;;;;-1.13;83.38;100820.02;1619377;88;21212;-68
2021/03/19 05:51:40;;;;;;;122.87;50.48;;;;;;;-1.13;83.37;100822.63;1627308;88;20265;-68
2021/03/19 05:54:23;;;;;;;127.17;54.48;;;;;;;-1.18;83.39;100822.03;1627518;88;22100;-70
2021/03/19 05:57:08;;;;;;;125.38;50.23;;;;;;;-1.14;83.39;100823.55;1631518;86;21161;-70
2021/03/19 05:59:38;;;;;;;120.97;47.83;;;;;;;-1.13;83.40;100822.17;1654154;86;21151;-69
2021/03/19 06:02:32;;;;;;;117.60;50.50;;;;;;;-1.08;83.39;100824.51;1654266;86;21172;-69
2021/03/19 06:05:21;;;;;;;106.63;48.45;;;;;;;-1.01;83.44;100820.16;1654379;86;21490;-70
2021/03/19 06:08:02;;;;;;;127.70;53.48;;;;;;;-0.93;83.43;100818.42;1639682;86;21222;-70
2021/03/19 06:10:41;;;;;;;134.65;59.23;;;;;;;-0.78;83.46;100820.18;1627472;88;21211;-69
2021/03/19 06:13:26;;;;;;;156.15;69.27;;;;;;;-0.64;83.48;100824.16;1627831;86;21175;-70
2021/03/19 06:15:55;;;;;;;195.70;88.60;;;;;;;-0.55;83.49;100826.69;1605874;88;21170;-69
2021/03/19 06:18:36;;;;;;;100.72;46.42;;;;;;;-0.48;83.50;100823.25;1624839;86;21231;-69
2021/03/19 06:21:11;;;;;;;124.47;56.13;;;;;;;-0.45;83.54;100821.75;1653252;86;21594;-70
2021/03/19 06:23:44;;;;;;;115.03;52.67;;;;;;;-0.41;83.56;100819.33;1651958;86;21187;-69
2021/03/19 06:26:31;;;;;;;126.15;58.17;;;;;;;-0.35;83.58;100822.93;1649457;86;21184;-69
2021/03/19 06:29:26;;;;;;;118.87;57.30;;;;;;;-0.31;83.60;100820.47;1649965;86;21191;-70
2021/03/19 06:32:13;;;;;;;120.10;54.18;;;;;;;-0.18;83.57;100824.08;1640361;86;21158;-70
2021/03/19 06:35:07;;;;;;;120.60;58.48;;;;;;;-0.06;83.59;100825.48;1631673;86;21583;-70
2021/03/19 06:37:40;;;;;;;108.32;53.45;;;;;;;0.02;83.59;100826.34;1636445;86;21214;-70
2021/03/19 06:40:37;;;;;;;108.45;53.15;;;;;;;0.00;83.63;100822.98;1626456;87;21610;-70
2021/03/19 06:43:27;;;;;;;128.68;63.48;;;;;;;-0.04;83.63;100824.09;1627680;86;21131;-70
2021/03/19 06:46:11;;;;;;;;;;;;;;;0.00;83.61;100833.47;1627570;88;21151;-70
2021/03/19 06:48:41;;;;;;;132.87;57.43;;;;;;;0.02;83.63;100832.89;1654519;84;21247;-70
2021/03/19 06:51:25;;;;;;;128.82;61.58;;;;;;;0.01;83.64;100837.75;1652016;86;21175;-69
2021/03/19 06:54:02;;;;;;;160.48;76.70;;;;;;;0.02;83.65;100842.07;1656680;86;21186;-69
2021/03/19 06:56:29;;;;;;;149.10;71.62;;;;;;;0.03;83.59;100838.52;1663205;85;21220;-70
2021/03/19 06:58:55;;;;;;;141.65;68.62;;;;;;;0.04;83.55;100840.65;1674566;84;21141;-70
2021/03/19 07:01:34;;;;;;;151.95;68.60;;;;;;;0.07;83.60;100838.69;1673532;84;21324;-70
2021/03/19 07:04:24;;;;;;;183.27;88.13;;;;;;;0.15;83.60;100847.41;1687729;84;21225;-70
2021/03/19 07:07:19;;;;;;;;;;;;;;;0.08;83.56;100847.40;1676289;84;21136;-70
2021/03/19 07:10:26;;;;;;;200.53;94.80;;;;;;;0.11;83.54;100851.98;1670639;84;20287;-70
2021/03/19 07:13:39;;;;;;;131.80;56.50;;;;;;;0.14;83.52;100853.61;1598201;88;21182;-70
2021/03/19 07:16:21;;;;;;;223.25;87.78;;;;;;;0.10;83.49;100857.34;1667225;84;21248;-70
2021/03/19 07:19:19;;;;;;;184.67;72.47;;;;;;;0.12;83.48;100865.48;1691060;84;21163;-70
2021/03/19 07:22:03;;;;;;;140.95;59.25;;;;;;;0.20;83.49;100861.94;1608503;88;21250;-70
2021/03/19 07:24:49;;;;;;;122.65;56.13;;;;;;;0.26;83.48;100869.43;1654359;85;21217;-70
2021/03/19 07:27:31;;;;;;;116.80;50.65;;;;;;;0.30;83.46;100872.25;1653130;85;21747;-70
2021/03/19 07:30:26;;;;;;;127.72;53.20;;;;;;;0.24;83.44;100879.18;1677854;84;22127;-70
2021/03/19 07:33:36;;;;;;;156.87;68.05;;;;;;;0.12;83.42;100878.59;1670900;84;21151;-70
2021/03/19 07:36:17;;;;;;;141.55;65.35;;;;;;;0.04;83.43;100879.52;1678288;85;21212;-70
2021/03/19 07:39:04;;;;;;;153.85;69.90;;;;;;;0.06;83.37;100878.97;1684412;84;21212;-70
2021/03/19 07:41:55;;;;;;;197.37;83.17;;;;;;;0.15;83.40;100879.72;1651252;86;21196;-70
2021/03/19 07:44:37;;;;;;;201.55;89.58;;;;;;;0.28;83.37;100877.22;1677400;84;22169;-70
2021/03/19 07:47:24;;;;;;;232.65;99.07;;;;;;;0.39;83.34;100885.25;1698819;84;21602;-70
2021/03/19 07:50:33;;;;;;;186.18;77.90;;;;;;;0.45;83.33;100885.75;1694330;84;21174;-70
2021/03/19 07:53:11;;;;;;;135.75;58.40;;;;;;;0.50;83.29;100877.58;1693196;84;21227;-70
2021/03/19 07:56:17;;;;;;;153.72;65.20;;;;;;;0.61;83.29;100877.76;1663232;85;21187;-70
2021/03/19 07:59:10;;;;;;;127.02;61.75;;;;;;;0.88;83.31;100877.84;1783334;77;22820;-70
2021/03/19 08:01:48;;;;;;;134.78;68.17;;;;;;;0.88;83.25;100880.47;1776026;79;21218;-70
2021/03/19 08:04:36;;;;;;;134.30;64.95;;;;;;;0.81;83.28;100883.10;1775754;79;22261;-70
2021/03/19 08:07:20;;;;;;;117.70;55.98;;;;;;;0.76;83.27;100881.22;1783087;79;21199;-70
2021/03/19 08:10:26;;;;;;;134.40;63.35;;;;;;;0.69;83.30;100883.39;1794046;79;21163;-69
2021/03/19 08:13:07;;;;;;;107.12;50.98;;;;;;;0.73;83.30;100884.04;1795866;79;21621;-69
2021/03/19 08:15:43;;;;;;;107.10;49.15;;;;;;;0.69;83.26;100882.53;1743674;79;21203;-69
2021/03/19 08:18:21;;;;;;;121.22;53.02;;;;;;;0.60;83.26;100888.37;1725919;82;22236;-69
2021/03/19 08:21:18;;;;;;;108.32;50.60;;;;;;;0.59;83.27;100881.42;1755595;81;21572;-69
2021/03/19 08:24:09;;;;;;;91.55;44.18;;;;;;;0.66;83.26;100893.23;1742201;82;21243;-69
2021/03/19 08:26:50;;;;;;;94.45;45.90;;;;;;;0.67;83.20;100884.42;1751680;81;21154;-69
2021/03/19 08:29:48;;;;;;;113.40;54.03;;;;;;;0.72;83.20;100888.91;1747813;81;21138;-69
2021/03/19 08:32:36;;;;;;;99.00;46.15;;;;;;;0.72;83.22;100884.97;1743039;81;21907;-69
2021/03/19 08:35:20;;;;;;;107.07;48.80;;;;;;;0.74;83.21;100887.05;1733028;81;21151;-69
2021/03/19 08:38:17;;;;;;;102.02;45.55;;;;;;;0.74;83.24;100883.92;1753921;81;21164;-69
2021/03/19 08:40:57;;;;;;;89.52;44.85;;;;;;;0.81;83.21;100884.41;1741025;81;21688;-69
2021/03/19 08:43:28;;;;;;;95.65;44.27;;;;;;;0.75;83.20;100892.64;1756485;81;21154;-70
2021/03/19 08:46:06;;;;;;;95.07;43.35;;;;;;;0.72;83.20;100887.13;1755585;81;21223;-70
2021/03/19 08:48:33;;;;;;;68.95;33.30;;;;;;;0.71;83.17;100888.52;1754218;81;21146;-70
2021/03/19 08:51:25;;;;;;;55.58;29.60;;;;;;;0.79;83.18;100885.80;1739331;81;21186;-70
2021/03/19 08:54:18;;;;;;;66.47;30.95;;;;;;;0.88;83.14;100893.59;1736362;81;21159;-69
2021/03/19 08:56:56;;;;;;;70.45;31.95;;;;;;;1.03;83.17;100889.97;1754272;81;21127;-71
2021/03/19 08:59:37;;;;;;;78.20;35.28;;;;;;;1.12;83.13;100896.44;1718336;81;21679;-70
2021/03/19 09:02:12;;;;;;;86.60;35.98;;;;;;;1.12;83.13;100901.23;1753214;80;21613;-70
2021/03/19 09:04:59;;;;;;;79.50;36.70;;;;;;;1.23;83.14;100905.30;1759269;80;21179;-70
2021/03/19 09:07:55;;;;;;;68.42;32.85;;;;;;;1.27;83.10;100909.42;1741384;81;21169;-70
2021/03/19 09:10:27;;;;;;;48.25;24.98;;;;;;;1.35;83.11;100901.05;1692049;81;21606;-70
2021/03/19 09:13:08;;;;;;;54.08;29.75;;;;;;;1.56;83.15;100904.06;1730062;81;21812;-70
2021/03/19 09:15:32;;;;;;;85.90;43.45;;;;;;;1.95;83.22;100904.06;1735218;81;21193;-70
2021/03/19 09:18:07;;;;;;;80.42;37.95;;;;;;;2.11;83.12;100905.20;1727919;82;21187;-70
2021/03/19 09:20:48;;;;;;;78.42;36.13;;;;;;;2.14;83.07;100904.52;1735507;81;21148;-70
2021/03/19 09:23:20;;;;;;;64.20;33.95;;;;;;;2.28;83.01;100905.75;1735194;81;21156;-70
2021/03/19 09:26:21;;;;;;;71.67;35.60;;;;;;;2.39;82.97;100903.19;1734413;81;22068;-70
2021/03/19 09:29:03;;;;;;;58.98;31.45;;;;;;;2.37;82.92;100902.47;1728432;81;21599;-70
2021/03/19 09:31:35;;;;;;;51.60;27.80;;;;;;;2.30;82.84;100909.09;1736871;81;21165;-70
2021/03/19 09:34:15;;;;;;;72.37;32.93;;;;;;;2.34;82.78;100902.69;1755973;81;21525;-70
2021/03/19 09:36:58;;;;;;;61.30;31.50;;;;;;;2.44;82.78;100898.47;1725758;81;21618;-70
2021/03/19 09:39:55;;;;;;;44.60;23.85;;;;;;;2.58;82.71;100892.71;1753270;81;21209;-70
2021/03/19 09:42:28;;;;;;;42.23;25.35;;;;;;;2.72;82.70;100890.80;1749796;81;21155;-70
2021/03/19 09:45:09;;;;;;;56.33;31.68;;;;;;;2.74;82.62;100888.08;1753782;81;21175;-70
2021/03/19 09:47:44;;;;;;;48.40;26.00;;;;;;;2.79;82.55;100892.52;1754792;81;21639;-69
2021/03/19 09:50:31;;;;;;;59.70;30.70;;;;;;;2.92;82.48;100894.18;1755713;81;21187;-70
2021/03/19 09:53:16;;;;;;;70.50;33.02;;;;;;;2.94;82.42;100898.03;1755280;81;21214;-70
2021/03/19 09:55:44;;;;;;;60.03;35.08;;;;;;;2.86;82.33;100897.73;1741694;81;21131;-70
2021/03/19 09:58:31;;;;;;;83.37;41.23;;;;;;;2.67;82.21;100898.67;1748357;81;21200;-70
2021/03/19 10:01:12;;;;;;;51.48;27.98;;;;;;;2.60;82.10;100905.31;1747600;82;21184;-70
2021/03/19 10:03:57;;;;;;;69.82;34.05;;;;;;;2.43;82.01;100904.67;1743447;82;21179;-70
2021/03/19 10:06:32;;;;;;;59.00;27.95;;;;;;;2.33;81.97;100902.77;1745813;82;21213;-70
2021/03/19 10:09:13;;;;;;;42.40;22.60;;;;;;;2.29;81.88;100905.24;1746606;82;21214;-70
2021/03/19 10:12:13;;;;;;;69.80;33.28;;;;;;;2.32;81.82;100907.69;1729990;82;21200;-69
2021/03/19 10:14:53;;;;;;;90.00;41.00;;;;;;;2.32;81.74;100903.25;1756075;79;21189;-70
2021/03/19 10:17:33;;;;;;;75.17;34.10;;;;;;;2.35;81.69;100902.22;1752031;79;21197;-69
2021/03/19 10:20:23;;;;;;;60.30;28.57;;;;;;;2.38;81.68;100894.95;1752467;81;21200;-70
2021/03/19 10:22:59;;;;;;;;;;;;;;;2.50;81.67;100898.03;1755176;81;21201;-70
2021/03/19 10:25:31;;;;;;;41.28;23.40;;;;;;;2.70;81.65;100897.13;1742849;80;20571;-70
2021/03/19 10:28:05;;;;;;;46.40;23.32;;;;;;;2.82;81.60;100899.73;1710481;82;21196;-70
2021/03/19 10:30:38;;;;;;;50.23;25.85;;;;;;;3.10;81.62;100892.02;1750762;81;21152;-70
2021/03/19 10:33:17;;;;;;;51.42;27.67;;;;;;;3.42;81.55;100898.45;1765897;80;21204;-69
2021/03/19 10:36:01;;;;;;;39.98;22.00;;;;;;;3.53;81.43;100893.23;1761227;80;21206;-70
2021/03/19 10:38:51;;;;;;;38.05;21.37;;;;;;;3.55;81.31;100890.97;1741699;82;21141;-70
2021/03/19 10:41:33;;;;;;;;;;;;;;;3.67;81.27;100884.77;1750143;82;21156;-70
2021/03/19 10:44:25;;;;;;;47.08;22.60;;;;;;;3.66;81.16;100885.75;1741120;82;20260;-70
2021/03/19 10:46:58;;;;;;;32.17;18.17;;;;;;;3.78;81.11;100887.45;1746626;82;22161;-70
2021/03/19 10:49:54;;;;;;;32.30;19.77;;;;;;;4.02;81.06;100882.96;1715680;82;21611;-70
2021/03/19 10:52:37;;;;;;;36.73;18.92;;;;;;;4.33;80.97;100873.06;1740036;80;21199;-71
2021/03/19 10:55:09;;;;;;;23.70;14.85;;;;;;;4.53;80.77;100868.89;1711561;83;21241;-71
2021/03/19 10:58:15;;;;;;;39.80;22.58;;;;;;;4.70;80.65;100870.20;1821390;77;22787;-71
2021/03/19 11:00:43;;;;;;;20.45;8.75;;;;;;;4.53;80.48;100875.49;1766050;78;21152;-71
2021/03/19 11:03:33;;;;;;;12.00;6.97;;;;;;;4.04;80.10;100883.70;1808077;78;22116;-70
2021/03/19 11:06:03;;;;;;;14.75;5.70;;;;;;;3.52;79.87;100901.23;1789642;78;21234;-70
2021/03/19 11:08:29;;;;;;;;;;;;;;;3.08;79.66;100899.20;1811496;78;21150;-70
2021/03/19 11:10:55;;;;;;;19.25;6.72;;;;;;;2.86;79.54;100899.89;1745632;80;20296;-71
2021/03/19 11:13:31;;;;;;;15.85;6.67;;;;;;;2.61;79.43;100895.97;1756885;81;21156;-70
2021/03/19 11:16:00;;;;;;;22.10;8.13;;;;;;;2.48;79.32;100898.63;1741588;81;22071;-70
2021/03/19 11:18:38;;;;;;;15.18;6.42;;;;;;;2.27;79.23;100902.73;1734606;82;21691;-70
2021/03/19 11:21:16;;;;;;;12.85;6.65;;;;;;;2.05;79.21;100899.87;1729797;82;21207;-70
2021/03/19 11:23:49;;;;;;;32.80;13.50;;;;;;;1.94;79.20;100899.73;1724413;82;21191;-70
2021/03/19 11:26:29;;;;;;;29.32;11.43;;;;;;;1.99;79.16;100901.60;1722318;82;21203;-70
2021/03/19 11:29:29;;;;;;;13.30;7.42;;;;;;;2.20;79.20;100902.78;1713467;82;21218;-71
2021/03/19 11:32:07;;;;;;;8.90;5.35;;;;;;;2.58;79.24;100892.24;1709020;82;21180;-71
2021/03/19 11:34:55;;;;;;;8.75;4.45;;;;;;;3.02;79.22;100893.07;1723839;82;21155;-71
2021/03/19 11:37:28;;;;;;;10.55;5.47;;;;;;;3.41;79.22;100889.34;1728025;82;21192;-71
2021/03/19 11:40:16;;;;;;;15.20;7.83;;;;;;;3.62;79.17;100896.15;1736844;82;21631;-70
2021/03/19 11:42:45;;;;;;;10.20;6.53;;;;;;;3.39;78.98;100908.37;1732660;82;21222;-71
2021/03/19 11:45:27;;;;;;;12.07;6.83;;;;;;;2.85;78.91;100911.87;1728187;82;21187;-72
2021/03/19 11:48:04;;;;;;;15.70;7.40;;;;;;;2.53;78.92;100901.42;1728819;82;21197;-71
2021/03/19 11:50:35;;;;;;;12.23;7.08;;;;;;;2.33;78.94;100909.35;1728544;82;21155;-71
2021/03/19 11:53:05;;;;;;;10.58;6.53;;;;;;;2.10;78.90;100906.98;1739806;82;21128;-71
2021/03/19 11:55:34;;;;;;;;;;;;;;;2.00;78.89;100907.24;1730554;82;22369;-71
2021/03/19 11:58:01;;;;;;;22.03;9.50;;;;;;;1.95;78.92;100911.95;1709069;83;20276;-70